Time;durP1;ratioP1;P1;durP2;ratioP2;P2;SDS_P1;SDS_P2;PMS_P1;PMS_P2;Temp;Humidity;BMP_temperature;BMP_pressure;BME280_temperature;BME280_humidity;BME280_pressure;Samples;Min_cycle;Max_cycle;Signal;HPM_P1;HPM_P2
2021/05/23 00:01:15;;;;;;;1.30;1.30;;;13.10;66.50;;;;;;4988349;28;20207;-89
2021/05/23 00:03:41;;;;;;;1.50;1.40;;;13.10;66.80;;;;;;5021436;28;20188;-89
2021/05/23 00:06:07;;;;;;;1.70;1.27;;;13.10;66.70;;;;;;5021504;28;20259;-90
2021/05/23 00:08:32;;;;;;;1.57;1.10;;;13.00;66.80;;;;;;5023030;28;20194;-89
2021/05/23 00:11:01;;;;;;;1.53;1.43;;;13.10;67.30;;;;;;5004500;28;20636;-89
2021/05/23 00:13:30;;;;;;;1.50;1.30;;;13.10;67.30;;;;;;5022405;28;20236;-89
2021/05/23 00:16:00;;;;;;;1.77;1.30;;;13.20;66.90;;;;;;5022087;28;20232;-88
2021/05/23 00:18:27;;;;;;;1.30;1.30;;;13.20;66.40;;;;;;5022006;28;20237;-89
2021/05/23 00:20:53;;;;;;;4.80;1.50;;;13.20;66.60;;;;;;5021714;28;20205;-88
2021/05/23 00:23:20;;;;;;;1.37;1.27;;;13.20;66.60;;;;;;5021946;28;20758;-90
2021/05/23 00:25:46;;;;;;;1.40;1.30;;;13.10;67.30;;;;;;5021543;28;20306;-89
2021/05/23 00:28:12;;;;;;;2.53;1.60;;;13.10;67.00;;;;;;5022451;28;20311;-90
2021/05/23 00:30:39;;;;;;;1.50;1.40;;;13.10;66.60;;;;;;5023702;28;20225;-89
2021/05/23 00:33:06;;;;;;;1.73;1.30;;;13.20;66.20;;;;;;5025188;28;20185;-89
2021/05/23 00:35:33;;;;;;;2.03;1.50;;;13.20;66.20;;;;;;5024088;28;20226;-89
2021/05/23 00:37:59;;;;;;;1.40;1.30;;;13.20;66.10;;;;;;5026136;28;20688;-90
2021/05/23 00:40:25;;;;;;;1.53;1.23;;;13.20;66.40;;;;;;5008257;28;20188;-89
2021/05/23 00:42:51;;;;;;;1.70;1.60;;;13.20;66.50;;;;;;5026410;28;20208;-90
2021/05/23 00:45:18;;;;;;;1.50;1.40;;;13.20;66.90;;;;;;5026373;28;20185;-89
2021/05/23 00:47:45;;;;;;;1.40;1.30;;;13.20;66.80;;;;;;5025840;28;20189;-89
2021/05/23 00:50:16;;;;;;;1.37;1.27;;;13.10;67.10;;;;;;5010089;28;20196;-89
2021/05/23 00:52:42;;;;;;;1.27;1.17;;;13.10;67.50;;;;;;4987974;28;20201;-89
2021/05/23 00:55:08;;;;;;;1.53;1.33;;;13.10;67.20;;;;;;5003289;28;20244;-89
2021/05/23 00:57:34;;;;;;;1.57;1.50;;;13.00;67.00;;;;;;5002444;28;20230;-89
2021/05/23 01:00:00;;;;;;;1.63;1.53;;;12.90;67.80;;;;;;5001038;28;20176;-89
2021/05/23 01:02:40;;;;;;;1.33;1.23;;;12.90;68.20;;;;;;4984432;28;20203;-89
2021/05/23 01:05:07;;;;;;;2.40;1.40;;;12.90;68.00;;;;;;5003739;28;20175;-89
2021/05/23 01:07:33;;;;;;;1.40;1.30;;;12.90;67.90;;;;;;5002517;28;20194;-89
2021/05/23 01:10:08;;;;;;;1.33;1.30;;;12.80;68.30;;;;;;5002876;28;20224;-89
2021/05/23 01:12:52;;;;;;;3.87;1.40;;;12.90;68.00;;;;;;5004199;28;20257;-89
2021/05/23 01:15:27;;;;;;;1.47;1.37;;;12.80;68.20;;;;;;5005961;28;20207;-88
2021/05/23 01:17:54;;;;;;;1.60;1.50;;;12.80;68.10;;;;;;5002632;28;20217;-89
2021/05/23 01:20:26;;;;;;;3.50;1.40;;;12.80;68.20;;;;;;5002844;28;20179;-89
2021/05/23 01:23:19;;;;;;;1.37;1.30;;;12.80;68.20;;;;;;5002388;28;20194;-89
2021/05/23 01:25:47;;;;;;;1.50;1.40;;;12.60;68.80;;;;;;5003436;28;20175;-91
2021/05/23 01:28:15;;;;;;;4.37;1.93;;;12.60;69.50;;;;;;5003231;28;20183;-89
2021/05/23 01:30:44;;;;;;;2.90;1.20;;;12.60;69.80;;;;;;5002668;28;20198;-89
2021/05/23 01:33:14;;;;;;;1.50;1.40;;;12.50;70.10;;;;;;5003136;28;20199;-89
2021/05/23 01:35:42;;;;;;;3.23;1.47;;;12.50;70.00;;;;;;5002202;28;20211;-89
2021/05/23 01:38:16;;;;;;;1.63;1.40;;;12.50;70.60;;;;;;5005004;28;20180;-89
2021/05/23 01:40:43;;;;;;;1.37;1.30;;;12.50;70.40;;;;;;4990693;28;20179;-89
2021/05/23 01:43:10;;;;;;;1.93;1.33;;;12.50;70.80;;;;;;5007478;28;20183;-88
2021/05/23 01:45:37;;;;;;;1.67;1.40;;;12.50;71.00;;;;;;5017125;28;20177;-89
2021/05/23 01:48:05;;;;;;;2.33;1.43;;;12.50;70.10;;;;;;5026973;28;20192;-88
2021/05/23 01:50:32;;;;;;;2.07;1.40;;;12.40;70.60;;;;;;5008907;28;20182;-89
2021/05/23 01:53:00;;;;;;;2.37;1.70;;;12.40;70.50;;;;;;5005378;28;20365;-89
2021/05/23 01:55:27;;;;;;;2.67;1.47;;;12.40;70.60;;;;;;5023021;28;20202;-89
2021/05/23 01:57:53;;;;;;;1.40;1.30;;;12.40;71.30;;;;;;5004900;28;20198;-90
2021/05/23 02:00:38;;;;;;;1.47;1.37;;;12.40;71.40;;;;;;5021635;28;20180;-89
2021/05/23 02:03:10;;;;;;;1.30;1.23;;;12.50;70.90;;;;;;5021527;28;20224;-90
2021/05/23 02:05:42;;;;;;;1.60;1.50;;;12.50;71.40;;;;;;5022695;28;20180;-90
2021/05/23 02:08:08;;;;;;;1.63;1.53;;;12.50;71.20;;;;;;5005114;28;20546;-89
2021/05/23 02:10:34;;;;;;;3.53;1.70;;;12.40;71.70;;;;;;5022501;28;20706;-89
2021/05/23 02:13:05;;;;;;;1.70;1.43;;;12.30;72.60;;;;;;5028175;28;20188;-89
2021/05/23 02:15:31;;;;;;;2.07;1.43;;;12.40;71.50;;;;;;5029182;28;20573;-89
2021/05/23 02:17:57;;;;;;;2.00;1.47;;;12.30;71.10;;;;;;5012143;28;20182;-89
2021/05/23 02:20:27;;;;;;;1.90;1.50;;;12.30;71.30;;;;;;5020858;28;20182;-88
2021/05/23 02:22:55;;;;;;;2.20;1.40;;;12.30;71.20;;;;;;5021131;28;20208;-89
2021/05/23 02:25:21;;;;;;;1.20;1.20;;;12.20;70.70;;;;;;5021143;28;20183;-89
2021/05/23 02:27:52;;;;;;;1.97;1.63;;;12.20;71.00;;;;;;5020406;28;20896;-89
2021/05/23 02:30:24;;;;;;;3.23;1.40;;;12.20;71.10;;;;;;5020214;28;20185;-89
2021/05/23 02:32:50;;;;;;;2.43;1.57;;;12.30;71.20;;;;;;5021020;28;20248;-89
2021/05/23 02:35:18;;;;;;;1.63;1.50;;;12.20;71.20;;;;;;5020447;28;20205;-88
2021/05/23 02:37:45;;;;;;;2.83;1.43;;;12.20;71.20;;;;;;5020780;28;20181;-89
2021/05/23 02:40:18;;;;;;;1.53;1.43;;;12.20;71.00;;;;;;5018963;28;20178;-88
2021/05/23 02:42:45;;;;;;;2.27;1.57;;;12.20;70.60;;;;;;5002787;28;20204;-88
2021/05/23 02:45:13;;;;;;;2.23;1.67;;;12.10;71.80;;;;;;5020841;28;20213;-89
2021/05/23 02:47:40;;;;;;;1.60;1.50;;;12.10;72.00;;;;;;5020202;28;20181;-89
2021/05/23 02:50:10;;;;;;;3.37;1.67;;;12.00;71.90;;;;;;5021038;28;20173;-89
2021/05/23 02:52:36;;;;;;;2.87;1.50;;;12.00;72.80;;;;;;5019789;28;20208;-89
2021/05/23 02:55:05;;;;;;;2.43;1.40;;;12.10;72.00;;;;;;5003212;28;20225;-88
2021/05/23 02:57:35;;;;;;;2.40;1.50;;;12.10;72.70;;;;;;5020776;28;20202;-89
2021/05/23 03:00:01;;;;;;;2.23;1.50;;;12.10;73.40;;;;;;5020559;28;20211;-89
2021/05/23 03:02:27;;;;;;;2.10;1.30;;;12.10;75.00;;;;;;4986815;28;20245;-88
2021/05/23 03:04:54;;;;;;;1.40;1.30;;;12.10;74.90;;;;;;5005065;28;20194;-90
2021/05/23 03:07:23;;;;;;;2.20;1.40;;;12.20;75.30;;;;;;5021166;28;20184;-90
2021/05/23 03:09:49;;;;;;;1.43;1.30;;;12.00;76.70;;;;;;5021402;28;20330;-90
2021/05/23 03:12:15;;;;;;;2.17;1.57;;;11.90;78.60;;;;;;5022495;28;20225;-89
2021/05/23 03:14:42;;;;;;;2.53;1.70;;;11.80;79.70;;;;;;5021397;28;20239;-88
2021/05/23 03:17:09;;;;;;;2.57;1.50;;;11.80;80.20;;;;;;5020236;28;20190;-90
2021/05/23 03:19:39;;;;;;;3.37;1.77;;;11.70;81.50;;;;;;5021335;28;20249;-90
2021/05/23 03:22:06;;;;;;;2.90;1.40;;;11.70;82.20;;;;;;5022008;28;20199;-89
2021/05/23 03:24:33;;;;;;;1.50;1.40;;;11.70;83.00;;;;;;5005414;28;20265;-89
2021/05/23 03:26:59;;;;;;;3.33;1.63;;;11.70;83.60;;;;;;5004912;28;20338;-89
2021/05/23 03:29:25;;;;;;;1.40;1.30;;;11.50;84.60;;;;;;5021718;28;20177;-88
2021/05/23 03:31:51;;;;;;;3.17;1.67;;;11.50;85.40;;;;;;5020893;28;20209;-89
2021/05/23 03:34:17;;;;;;;2.50;1.73;;;11.40;86.00;;;;;;5003604;28;20184;-89
2021/05/23 03:36:43;;;;;;;1.20;1.20;;;11.30;86.30;;;;;;5021072;28;20216;-89
2021/05/23 03:39:08;;;;;;;1.70;1.60;;;11.30;86.30;;;;;;5019699;28;20174;-89
2021/05/23 03:41:34;;;;;;;1.60;1.37;;;11.30;86.00;;;;;;5022180;28;20201;-90
2021/05/23 03:44:00;;;;;;;1.77;1.57;;;11.20;85.90;;;;;;5020711;28;20261;-89
2021/05/23 03:46:26;;;;;;;2.13;1.67;;;11.30;85.60;;;;;;5021161;28;20184;-88
2021/05/23 03:48:52;;;;;;;3.37;1.53;;;11.30;85.00;;;;;;5022038;28;20182;-90
2021/05/23 03:51:17;;;;;;;2.77;1.60;;;11.30;84.30;;;;;;5022915;28;20217;-89
2021/05/23 03:53:43;;;;;;;1.33;1.30;;;11.30;84.30;;;;;;5005453;28;20201;-89
2021/05/23 03:56:09;;;;;;;1.57;1.40;;;11.30;84.60;;;;;;5021671;28;20213;-89
2021/05/23 03:58:34;;;;;;;1.33;1.30;;;11.30;84.20;;;;;;5019930;28;20717;-89
2021/05/23 04:01:00;;;;;;;1.90;1.50;;;11.30;83.80;;;;;;5001798;28;20210;-87
2021/05/23 04:03:28;;;;;;;1.60;1.50;;;11.40;83.40;;;;;;5021981;28;20189;-88
2021/05/23 04:05:54;;;;;;;1.87;1.77;;;11.40;83.30;;;;;;5006213;28;20189;-88
2021/05/23 04:08:20;;;;;;;1.40;1.30;;;11.40;82.90;;;;;;5007344;28;20190;-89
2021/05/23 04:11:05;;;;;;;1.40;1.30;;;11.40;82.50;;;;;;5023909;28;20224;-90
2021/05/23 04:13:33;;;;;;;1.73;1.40;;;11.50;82.30;;;;;;5023053;28;20594;-89
2021/05/23 04:15:59;;;;;;;2.63;1.50;;;11.50;81.20;;;;;;5024662;28;20206;-88
2021/05/23 04:18:25;;;;;;;4.17;1.60;;;11.60;80.60;;;;;;5024385;28;20224;-88
2021/05/23 04:21:06;;;;;;;2.47;1.50;;;11.60;80.00;;;;;;5025016;28;20185;-89
2021/05/23 04:23:41;;;;;;;1.97;1.50;;;11.60;79.60;;;;;;5023509;28;20661;-89
2021/05/23 04:26:06;;;;;;;1.57;1.47;;;11.60;79.80;;;;;;5025063;28;20201;-88
2021/05/23 04:31:39;;;;;;;1.70;1.60;;;11.60;79.80;;;;;;5022731;28;20212;-89
2021/05/23 04:34:10;;;;;;;1.63;1.30;;;11.50;79.30;;;;;;5023895;28;20186;-90
2021/05/23 04:36:36;;;;;;;2.57;1.50;;;11.60;79.60;;;;;;5006077;28;20232;-89
2021/05/23 04:39:02;;;;;;;1.53;1.43;;;11.50;78.60;;;;;;5009482;28;20216;-89
2021/05/23 04:41:28;;;;;;;1.70;1.60;;;11.60;77.90;;;;;;5021124;28;20193;-89
2021/05/23 04:43:53;;;;;;;2.63;1.60;;;11.70;77.00;;;;;;5007906;28;20202;-89
2021/05/23 04:46:20;;;;;;;2.30;1.47;;;11.70;76.30;;;;;;5023367;28;20677;-90
2021/05/23 04:48:46;;;;;;;1.93;1.50;;;11.70;76.30;;;;;;5025057;28;20182;-90
2021/05/23 04:51:12;;;;;;;1.50;1.40;;;11.70;76.60;;;;;;5023538;28;20763;-88
2021/05/23 04:53:38;;;;;;;2.50;1.40;;;11.80;75.40;;;;;;5017793;28;20194;-90
2021/05/23 04:56:04;;;;;;;1.90;1.30;;;11.90;74.40;;;;;;5019762;28;20224;-89
2021/05/23 04:58:30;;;;;;;2.43;1.40;;;11.90;74.10;;;;;;5005770;28;20229;-89
2021/05/23 05:00:56;;;;;;;3.17;1.50;;;11.90;74.30;;;;;;5023332;28;20217;-89
2021/05/23 05:03:21;;;;;;;2.03;1.63;;;11.90;75.40;;;;;;5006194;28;20185;-88
2021/05/23 05:05:47;;;;;;;1.57;1.47;;;11.90;74.50;;;;;;5004144;28;20194;-89
2021/05/23 05:08:13;;;;;;;3.20;1.50;;;11.90;73.80;;;;;;5024162;28;20189;-89
2021/05/23 05:10:38;;;;;;;2.53;1.40;;;11.70;74.10;;;;;;5007039;28;20232;-88
2021/05/23 05:13:04;;;;;;;2.70;1.40;;;11.80;73.30;;;;;;5022517;28;20338;-88
2021/05/23 05:15:30;;;;;;;2.07;1.63;;;11.90;72.70;;;;;;5024212;28;20280;-89
2021/05/23 05:17:55;;;;;;;2.70;1.50;;;11.80;72.80;;;;;;5023351;28;20170;-89
2021/05/23 05:20:21;;;;;;;1.83;1.37;;;11.90;72.90;;;;;;5005388;28;20673;-89
2021/05/23 05:22:47;;;;;;;1.50;1.40;;;11.90;72.90;;;;;;5021867;28;20291;-89
2021/05/23 05:25:13;;;;;;;2.57;1.70;;;12.00;72.80;;;;;;5023431;28;20241;-89
2021/05/23 05:27:39;;;;;;;4.20;1.80;;;12.00;72.90;;;;;;5005539;28;20178;-89
2021/05/23 05:30:06;;;;;;;2.23;1.40;;;12.00;72.40;;;;;;5021991;28;20181;-87
2021/05/23 05:32:32;;;;;;;2.20;1.50;;;12.00;72.30;;;;;;5022634;28;20609;-88
2021/05/23 05:34:58;;;;;;;3.43;1.53;;;12.10;71.40;;;;;;5022514;28;20260;-89
2021/05/23 05:37:24;;;;;;;2.13;1.60;;;12.00;71.30;;;;;;5023369;28;20182;-88
2021/05/23 05:39:50;;;;;;;1.63;1.50;;;12.10;71.50;;;;;;5024192;28;20182;-88
2021/05/23 05:42:16;;;;;;;1.60;1.50;;;12.00;71.40;;;;;;5021750;28;20194;-89
2021/05/23 05:44:42;;;;;;;4.33;1.70;;;12.10;72.00;;;;;;5022893;28;20170;-89
2021/05/23 05:47:07;;;;;;;3.37;1.47;;;12.00;71.90;;;;;;5000299;28;20189;-88
2021/05/23 05:49:36;;;;;;;2.10;1.70;;;12.10;72.30;;;;;;5021781;28;20197;-88
2021/05/23 05:52:03;;;;;;;2.30;1.63;;;12.10;71.90;;;;;;5009738;28;20213;-89
2021/05/23 05:54:29;;;;;;;2.50;1.63;;;12.20;71.50;;;;;;5004063;28;20189;-89
2021/05/23 05:56:54;;;;;;;2.23;1.60;;;12.20;71.00;;;;;;5004767;28;20178;-89
2021/05/23 05:59:20;;;;;;;1.77;1.50;;;12.20;71.30;;;;;;5022500;28;20186;-90
2021/05/23 06:01:46;;;;;;;2.43;1.70;;;12.10;71.10;;;;;;5030470;28;20206;-88
2021/05/23 06:04:11;;;;;;;4.50;1.77;;;12.10;71.40;;;;;;4990276;28;20175;-88
2021/05/23 06:06:37;;;;;;;6.00;2.33;;;12.10;71.30;;;;;;5009264;28;20257;-89
2021/05/23 06:09:03;;;;;;;2.60;1.37;;;12.10;71.90;;;;;;5022780;28;20202;-89
2021/05/23 06:11:29;;;;;;;5.60;1.50;;;12.10;70.50;;;;;;5021591;28;20219;-89
2021/05/23 06:13:54;;;;;;;1.87;1.30;;;12.10;71.10;;;;;;5021950;28;20187;-90
2021/05/23 06:16:20;;;;;;;1.83;1.47;;;12.10;71.60;;;;;;5023787;28;20263;-90
2021/05/23 06:18:46;;;;;;;1.40;1.30;;;12.20;70.70;;;;;;5003270;28;20272;-90
2021/05/23 06:21:12;;;;;;;1.53;1.43;;;12.40;70.30;;;;;;5021348;28;20216;-89
2021/05/23 06:23:38;;;;;;;2.30;1.30;;;12.40;70.20;;;;;;5020378;28;20186;-89
2021/05/23 06:26:04;;;;;;;1.83;1.70;;;12.50;69.50;;;;;;4988498;28;20196;-89
2021/05/23 06:28:30;;;;;;;1.83;1.50;;;12.40;69.80;;;;;;5024261;28;20254;-90
2021/05/23 06:30:56;;;;;;;2.07;1.60;;;12.50;69.40;;;;;;5027714;28;20202;-89
2021/05/23 06:33:21;;;;;;;2.97;1.53;;;12.50;69.60;;;;;;5023260;28;20203;-88
2021/05/23 06:35:47;;;;;;;2.93;1.67;;;12.60;68.90;;;;;;5026784;28;20206;-90
2021/05/23 06:38:13;;;;;;;3.17;1.47;;;12.70;69.60;;;;;;5020730;28;20209;-88
2021/05/23 06:40:38;;;;;;;2.53;1.60;;;12.70;67.20;;;;;;5006664;28;20185;-91
2021/05/23 06:43:04;;;;;;;2.63;1.50;;;12.70;68.90;;;;;;5025741;28;20174;-91
2021/05/23 06:45:30;;;;;;;4.17;1.97;;;12.80;69.20;;;;;;5025537;28;20186;-91
2021/05/23 06:47:56;;;;;;;2.20;1.60;;;12.70;68.40;;;;;;5026536;28;20190;-91
2021/05/23 06:50:25;;;;;;;2.43;1.57;;;12.60;68.30;;;;;;5014707;28;20280;-91
2021/05/23 06:52:50;;;;;;;2.57;1.60;;;12.70;68.60;;;;;;5013182;28;20204;-90
2021/05/23 06:55:16;;;;;;;3.20;1.60;;;12.80;68.50;;;;;;5008654;28;20879;-90
2021/05/23 06:57:43;;;;;;;2.47;1.50;;;13.00;68.40;;;;;;5018233;28;20214;-87
2021/05/23 07:00:09;;;;;;;1.97;1.37;;;12.90;67.70;;;;;;5037801;28;20157;-85
2021/05/23 07:02:35;;;;;;;2.30;1.80;;;13.00;67.30;;;;;;5032288;28;20201;-87
2021/05/23 07:05:01;;;;;;;4.20;1.43;;;13.00;66.60;;;;;;5035452;28;20250;-86
2021/05/23 07:07:28;;;;;;;4.87;1.50;;;13.10;66.70;;;;;;5034528;28;20163;-85
2021/05/23 07:09:54;;;;;;;2.07;1.40;;;13.00;67.80;;;;;;5034598;28;20187;-87
2021/05/23 07:12:19;;;;;;;2.83;1.60;;;13.00;68.30;;;;;;5017541;28;20212;-88
2021/05/23 07:14:45;;;;;;;2.30;1.60;;;13.00;68.10;;;;;;5028104;28;20225;-89
2021/05/23 07:17:11;;;;;;;2.90;1.50;;;13.10;67.90;;;;;;5003880;28;20185;-89
2021/05/23 07:19:37;;;;;;;3.70;1.60;;;13.00;68.10;;;;;;5016087;28;20203;-90
2021/05/23 07:22:02;;;;;;;3.73;1.70;;;13.10;69.10;;;;;;5022181;28;20226;-90
2021/05/23 07:24:28;;;;;;;1.50;1.40;;;13.00;68.00;;;;;;5020594;28;20190;-91
2021/05/23 07:26:54;;;;;;;2.33;1.57;;;13.10;67.80;;;;;;5020434;28;20654;-91
2021/05/23 07:29:20;;;;;;;2.73;1.70;;;13.20;66.90;;;;;;5018628;28;20170;-89
2021/05/23 07:31:45;;;;;;;2.03;1.40;;;13.30;67.90;;;;;;5024078;28;20201;-91
2021/05/23 07:34:11;;;;;;;2.80;1.70;;;13.40;66.80;;;;;;5018177;28;20219;-91
2021/05/23 07:36:37;;;;;;;2.33;1.60;;;13.40;66.50;;;;;;5034406;28;20217;-89
2021/05/23 07:39:03;;;;;;;3.47;1.47;;;13.30;66.10;;;;;;5034274;28;20196;-91
2021/05/23 07:41:29;;;;;;;2.47;1.83;;;13.20;69.80;;;;;;5029107;28;20206;-90
2021/05/23 07:43:54;;;;;;;4.30;1.90;;;13.00;71.50;;;;;;5023992;28;20194;-93
2021/05/23 07:46:20;;;;;;;1.60;1.30;;;12.90;72.20;;;;;;5011169;28;20564;-94
2021/05/23 07:48:46;;;;;;;3.07;1.70;;;12.80;71.90;;;;;;5011335;28;20250;-93
2021/05/23 07:51:12;;;;;;;2.13;1.43;;;13.10;71.50;;;;;;5029558;28;20230;-91
2021/05/23 07:53:37;;;;;;;3.37;2.00;;;13.30;71.10;;;;;;5002821;28;20187;-92
2021/05/23 07:56:03;;;;;;;1.50;1.40;;;13.60;69.70;;;;;;5001018;28;20275;-92
2021/05/23 07:58:29;;;;;;;2.00;1.60;;;13.80;69.30;;;;;;5017539;28;20274;-91
2021/05/23 08:00:57;;;;;;;3.03;1.70;;;13.90;68.40;;;;;;5004707;28;20276;-93
2021/05/23 08:03:23;;;;;;;3.00;1.73;;;13.70;70.00;;;;;;5032604;28;20195;-95
2021/05/23 08:05:49;;;;;;;2.27;1.60;;;13.40;70.10;;;;;;5033036;28;20168;-94
2021/05/23 08:08:18;;;;;;;2.80;1.57;;;13.30;70.90;;;;;;4983611;28;20706;-93
2021/05/23 08:10:47;;;;;;;5.07;1.67;;;13.20;71.60;;;;;;4991999;28;20214;-93
2021/05/23 08:13:13;;;;;;;2.13;1.50;;;13.40;71.60;;;;;;5002399;28;20193;-94
2021/05/23 08:15:41;;;;;;;2.47;1.93;;;13.30;71.40;;;;;;5021462;28;20212;-93
2021/05/23 08:18:08;;;;;;;1.90;1.80;;;13.70;73.00;;;;;;5006162;28;20224;-91
2021/05/23 08:20:34;;;;;;;2.50;1.63;;;14.00;71.80;;;;;;5018452;28;20183;-92
2021/05/23 08:23:00;;;;;;;2.43;1.70;;;14.30;68.90;;;;;;5017081;28;20201;-91
2021/05/23 08:25:26;;;;;;;1.53;1.43;;;14.50;69.00;;;;;;5023374;28;20219;-94
2021/05/23 08:27:52;;;;;;;1.90;1.60;;;14.70;69.40;;;;;;5015478;28;20185;-93
2021/05/23 08:30:18;;;;;;;1.87;1.67;;;14.90;68.10;;;;;;5017072;28;20235;-93
2021/05/23 08:32:44;;;;;;;3.10;1.80;;;14.80;65.50;;;;;;5002014;28;20291;-92
2021/05/23 08:35:11;;;;;;;2.90;1.77;;;14.70;67.90;;;;;;5038438;28;20234;-90
2021/05/23 08:37:38;;;;;;;2.90;1.60;;;15.00;66.50;;;;;;5024529;28;20178;-93
2021/05/23 08:40:05;;;;;;;3.63;1.73;;;14.90;64.70;;;;;;5018757;28;20212;-93
2021/05/23 08:42:32;;;;;;;2.27;1.43;;;14.90;64.80;;;;;;5000636;28;20285;-93
2021/05/23 08:44:57;;;;;;;1.57;1.30;;;14.80;62.30;;;;;;4986287;28;20197;-93
2021/05/23 08:47:25;;;;;;;3.13;1.43;;;14.60;58.90;;;;;;5003771;28;20205;-92
2021/05/23 08:49:51;;;;;;;4.07;1.50;;;14.60;57.90;;;;;;5026248;28;20208;-92
2021/05/23 08:52:20;;;;;;;3.43;1.77;;;14.60;59.20;;;;;;4985883;28;20206;-92
2021/05/23 08:54:48;;;;;;;3.50;1.70;;;14.50;58.50;;;;;;5022271;28;20196;-92
2021/05/23 08:57:23;;;;;;;1.63;1.53;;;14.60;59.80;;;;;;5024418;28;20177;-92
2021/05/23 08:59:49;;;;;;;2.07;1.77;;;14.50;59.30;;;;;;5023735;28;20231;-92
2021/05/23 09:02:15;;;;;;;2.50;1.67;;;14.40;60.30;;;;;;5024759;28;20200;-94
2021/05/23 09:04:51;;;;;;;4.87;1.60;;;14.30;58.90;;;;;;5025174;28;20563;-91
2021/05/23 09:07:18;;;;;;;3.03;1.70;;;14.10;58.80;;;;;;5006964;28;20688;-92
2021/05/23 09:09:46;;;;;;;2.70;1.57;;;14.20;59.00;;;;;;5007280;28;20195;-92
2021/05/23 09:12:14;;;;;;;1.90;1.47;;;14.20;59.20;;;;;;5025580;28;20211;-90
2021/05/23 09:14:45;;;;;;;2.07;1.40;;;14.20;59.00;;;;;;5027474;28;20185;-92
2021/05/23 09:17:27;;;;;;;2.93;1.60;;;14.30;59.10;;;;;;5028379;28;20193;-93
2021/05/23 09:19:55;;;;;;;2.93;1.63;;;14.40;59.20;;;;;;5026301;28;20197;-91
2021/05/23 09:22:27;;;;;;;1.83;1.40;;;14.50;60.30;;;;;;5025161;28;20232;-93
2021/05/23 09:24:54;;;;;;;3.60;1.80;;;14.30;64.30;;;;;;5006184;28;20195;-92
2021/05/23 09:27:25;;;;;;;3.33;1.80;;;14.10;65.80;;;;;;5026302;28;20197;-92
2021/05/23 09:30:20;;;;;;;3.50;1.80;;;14.20;66.20;;;;;;5005526;28;20251;-92
2021/05/23 09:32:47;;;;;;;2.33;1.50;;;14.20;64.50;;;;;;5007543;28;20239;-91
2021/05/23 09:35:15;;;;;;;2.40;1.70;;;14.10;64.30;;;;;;5024171;28;20217;-91
2021/05/23 09:37:42;;;;;;;2.37;1.67;;;14.30;67.20;;;;;;5019838;28;20189;-93
2021/05/23 09:40:18;;;;;;;2.00;1.70;;;14.10;68.50;;;;;;5019867;28;20192;-92
2021/05/23 09:42:48;;;;;;;2.27;1.50;;;14.20;68.20;;;;;;5020369;28;20212;-92
2021/05/23 09:45:15;;;;;;;2.00;1.63;;;14.20;67.50;;;;;;5023943;28;20192;-90
2021/05/23 09:47:58;;;;;;;2.83;1.70;;;14.30;67.80;;;;;;5029493;28;20548;-91
2021/05/23 09:50:57;;;;;;;2.60;1.67;;;14.40;67.80;;;;;;5009538;28;20200;-90
2021/05/23 09:53:23;;;;;;;3.20;2.00;;;14.30;66.30;;;;;;5007212;28;20205;-91
2021/05/23 09:56:13;;;;;;;1.70;1.60;;;14.30;65.70;;;;;;5020935;28;20347;-91
2021/05/23 09:58:41;;;;;;;2.30;1.70;;;14.30;65.10;;;;;;5005424;28;20216;-90
2021/05/23 10:01:09;;;;;;;2.33;1.63;;;14.30;65.60;;;;;;5020042;28;20202;-92
2021/05/23 10:03:40;;;;;;;1.93;1.57;;;14.50;65.70;;;;;;5019855;28;20185;-92
2021/05/23 10:06:09;;;;;;;2.00;1.67;;;14.60;65.40;;;;;;5017457;28;20197;-89
2021/05/23 10:08:35;;;;;;;3.87;2.03;;;14.60;62.10;;;;;;5031817;28;20185;-91
2021/05/23 10:11:01;;;;;;;4.87;1.97;;;14.50;63.80;;;;;;5026009;28;20432;-92
2021/05/23 10:13:32;;;;;;;5.03;2.23;;;14.50;64.30;;;;;;4994225;28;20190;-90
2021/05/23 10:15:57;;;;;;;3.87;2.03;;;14.40;66.80;;;;;;5025795;28;20205;-91
2021/05/23 10:18:28;;;;;;;2.30;1.60;;;14.60;65.90;;;;;;5008591;28;20226;-93
2021/05/23 10:20:57;;;;;;;2.17;1.97;;;14.90;63.40;;;;;;5025692;28;20224;-92
2021/05/23 10:23:28;;;;;;;2.13;1.60;;;15.00;62.90;;;;;;5003491;28;20371;-91
2021/05/23 10:26:00;;;;;;;2.73;1.90;;;14.80;63.40;;;;;;5013961;28;20190;-94
2021/05/23 10:28:26;;;;;;;3.40;1.83;;;14.90;63.20;;;;;;5031971;28;20221;-93
2021/05/23 10:30:57;;;;;;;3.23;1.97;;;15.20;63.70;;;;;;5030022;28;20220;-90
2021/05/23 10:33:24;;;;;;;2.63;1.87;;;15.60;59.90;;;;;;5003858;28;20189;-92
2021/05/23 10:35:52;;;;;;;3.37;1.97;;;15.60;56.60;;;;;;5003959;28;20210;-91
2021/05/23 10:38:21;;;;;;;4.70;1.90;;;15.60;56.00;;;;;;5019812;28;20186;-92
2021/05/23 10:41:07;;;;;;;2.50;1.83;;;15.60;56.10;;;;;;5016532;28;20189;-91
2021/05/23 10:43:36;;;;;;;2.13;1.60;;;15.60;58.30;;;;;;5020894;28;20190;-92
2021/05/23 10:46:12;;;;;;;2.43;1.60;;;15.60;57.80;;;;;;5022279;28;20193;-91
2021/05/23 10:48:50;;;;;;;3.07;1.70;;;15.40;57.90;;;;;;5021944;28;20193;-91
2021/05/23 10:51:17;;;;;;;3.70;2.30;;;15.40;61.20;;;;;;5019878;28;20208;-92
2021/05/23 10:53:44;;;;;;;2.53;1.77;;;15.10;61.70;;;;;;5020146;28;20325;-92
2021/05/23 10:56:26;;;;;;;2.70;2.00;;;15.30;62.70;;;;;;4985647;28;20224;-93
2021/05/23 10:58:59;;;;;;;4.47;2.00;;;15.20;66.00;;;;;;5017136;28;20256;-94
2021/05/23 11:01:44;;;;;;;2.70;1.83;;;15.80;61.70;;;;;;5000893;28;20237;-92
2021/05/23 11:04:17;;;;;;;5.60;2.40;;;16.00;58.30;;;;;;5018998;28;20250;-91
2021/05/23 11:06:45;;;;;;;3.63;2.23;;;16.30;57.40;;;;;;5015362;28;20551;-93
2021/05/23 11:09:14;;;;;;;3.23;1.73;;;16.40;58.10;;;;;;5023403;28;20190;-89
2021/05/23 11:11:40;;;;;;;3.07;1.80;;;16.50;57.00;;;;;;5024109;28;20231;-90
2021/05/23 11:14:12;;;;;;;2.70;1.77;;;16.60;55.30;;;;;;5023469;28;20518;-92
2021/05/23 11:16:54;;;;;;;3.00;1.90;;;16.50;54.10;;;;;;5019925;28;20241;-94
2021/05/23 11:19:22;;;;;;;1.87;1.63;;;16.40;54.60;;;;;;5017966;28;20211;-93
2021/05/23 11:21:51;;;;;;;4.87;1.87;;;16.40;54.30;;;;;;5019658;28;20677;-92
2021/05/23 11:24:18;;;;;;;2.80;1.80;;;16.80;55.40;;;;;;5014257;28;20174;-91
2021/05/23 11:26:44;;;;;;;3.47;1.60;;;17.50;53.00;;;;;;5020421;28;20212;-89
2021/05/23 11:29:10;;;;;;;3.17;1.50;;;18.00;50.90;;;;;;5015938;28;20193;-90
2021/05/23 11:31:39;;;;;;;3.77;1.70;;;18.30;50.40;;;;;;5015227;28;20247;-90
2021/05/23 11:34:07;;;;;;;3.50;1.77;;;18.30;47.70;;;;;;5020469;28;20193;-88
2021/05/23 11:36:39;;;;;;;4.47;2.00;;;17.80;45.90;;;;;;5013370;28;20212;-90
2021/05/23 11:39:14;;;;;;;5.13;1.83;;;17.80;45.90;;;;;;5017412;28;20234;-90
2021/05/23 11:41:43;;;;;;;3.13;1.70;;;17.40;46.10;;;;;;4998422;28;20210;-90
2021/05/23 11:44:12;;;;;;;3.27;1.53;;;17.30;46.80;;;;;;5019389;28;20323;-92
2021/05/23 11:46:40;;;;;;;2.83;1.70;;;17.10;47.90;;;;;;4998996;28;20203;-88
2021/05/23 11:49:06;;;;;;;3.50;1.57;;;16.70;46.50;;;;;;5003733;28;20215;-89
2021/05/23 11:51:34;;;;;;;2.43;1.60;;;16.40;47.90;;;;;;5015581;28;20232;-90
2021/05/23 11:54:04;;;;;;;3.80;1.83;;;16.30;48.10;;;;;;5013270;28;20192;-91
2021/05/23 11:56:35;;;;;;;4.13;1.80;;;16.10;47.90;;;;;;5016415;28;20210;-91
2021/05/23 11:59:05;;;;;;;4.03;1.70;;;16.10;49.10;;;;;;5017599;28;20177;-90
2021/05/23 12:01:38;;;;;;;2.30;1.63;;;16.10;49.30;;;;;;5021583;28;20190;-89
2021/05/23 12:04:06;;;;;;;2.57;1.67;;;16.00;47.90;;;;;;5016322;28;20247;-91
2021/05/23 12:06:35;;;;;;;1.77;1.57;;;15.90;49.70;;;;;;5015957;28;20622;-89
2021/05/23 12:09:11;;;;;;;1.77;1.40;;;15.80;51.80;;;;;;5017215;28;20179;-88
2021/05/23 12:11:49;;;;;;;3.53;1.87;;;15.70;52.30;;;;;;5018892;28;20227;-90
2021/05/23 12:14:49;;;;;;;1.83;1.50;;;15.80;52.60;;;;;;5021540;28;20182;-90
2021/05/23 12:17:20;;;;;;;1.80;1.53;;;15.90;52.50;;;;;;4981506;28;20218;-88
2021/05/23 12:19:52;;;;;;;2.70;1.63;;;16.00;52.20;;;;;;5003466;28;20185;-86
2021/05/23 12:22:30;;;;;;;3.73;1.53;;;16.00;51.20;;;;;;5022155;28;20212;-86
2021/05/23 12:25:15;;;;;;;1.43;1.33;;;16.10;51.40;;;;;;5019077;28;20189;-90
2021/05/23 12:27:41;;;;;;;1.50;1.40;;;16.00;51.00;;;;;;5001366;28;20264;-89
2021/05/23 12:30:11;;;;;;;2.53;1.33;;;15.80;52.30;;;;;;5029133;28;20189;-89
2021/05/23 12:32:51;;;;;;;2.77;1.47;;;16.30;52.70;;;;;;5027971;28;20204;-90
2021/05/23 12:35:25;;;;;;;2.10;1.30;;;17.10;50.30;;;;;;5024477;28;20291;-90
2021/05/23 12:38:01;;;;;;;1.53;1.30;;;17.90;48.40;;;;;;5022984;28;20214;-90
2021/05/23 12:40:56;;;;;;;2.70;1.47;;;18.30;47.60;;;;;;4990951;28;20199;-90
2021/05/23 12:43:31;;;;;;;3.13;1.43;;;18.80;46.00;;;;;;5009021;28;20208;-89
2021/05/23 12:46:11;;;;;;;2.10;1.63;;;19.40;44.90;;;;;;5024802;28;20181;-91
2021/05/23 12:48:45;;;;;;;1.90;1.60;;;19.40;43.40;;;;;;5001206;28;20251;-89
2021/05/23 12:51:12;;;;;;;3.15;1.60;;;20.00;44.50;;;;;;5002232;28;20239;-90
2021/05/23 12:53:53;;;;;;;1.90;1.50;;;20.20;42.50;;;;;;5021934;28;20252;-91
2021/05/23 12:56:25;;;;;;;2.10;1.70;;;19.80;40.40;;;;;;5021299;28;20242;-92
2021/05/23 12:58:56;;;;;;;3.88;1.73;;;19.80;43.20;;;;;;5024666;28;20248;-93